Latest Weather Observations for Samuel Hill

IDQ60801

Issued at 5:35 am EST Wednesday 3 September 2014 (issued every 30 minutes, with the page automatically refreshed every 10 minutes)

About weather observations | Map of weather stations | Latest weather observations for QLD | Other Formats
Station Details ID: 033308 Name: SAMUEL HILL AERO Lat: -22.74 Lon: 150.66 Height: 31.0 m
Data from the previous 72 hours. | See also: Recent months at Samuel Hill
Date/Time
EST
Temp
°C
App
Temp
°C
Dew
Point
Rel
Hum
%
Delta-T
°C
Wind Press
QNH
hPa
Press
MSL
hPa
Rain
since 9 am
mm
Dir
 
Spd
km/h
Gust
km/h
Spd
kts
Gust
kts
03/05:30am 7.1 5.0 5.6 90 0.7 SSE 6 9 3 5 1016.1 1016.0 0.2
03/05:00am 7.8 6.9 6.1 89 0.8 S 0 0 0 0 1015.7 1015.6 0.2
03/04:30am 7.8 5.4 5.4 85 1.1 E 7 11 4 6 1015.2 1015.1 0.2
03/04:00am 9.6 7.2 5.4 75 1.9 E 7 7 4 4 1014.9 1014.8 0.2
03/03:54am 10.0 7.8 5.2 72 2.2 ESE 6 7 3 4 1014.9 1014.8 0.2
03/03:30am 15.0 11.8 3.2 45 5.3 S 9 19 5 10 1014.7 1014.6 0.2
03/03:00am 17.2 12.6 3.5 40 6.4 S 17 26 9 14 1014.7 1014.6 0.2
03/02:49am 15.9 12.5 6.1 52 4.7 S 13 22 7 12 1014.7 1014.6 0.2
03/02:30am 10.7 10.2 9.3 91 0.7 N 2 6 1 3 1014.6 1014.5 0.2
03/02:00am 11.0 10.6 9.8 92 0.6 S 2 7 1 4 1014.7 1014.6 0.2
03/01:30am 12.0 12.2 10.6 91 0.7 CALM 0 0 0 0 1014.6 1014.5 0.2
03/01:00am 12.9 12.0 11.3 90 0.8 N 7 9 4 5 1014.5 1014.4 0.2
03/12:30am 13.7 13.2 11.9 89 1.0 W 6 11 3 6 1014.6 1014.5 0.2
03/12:00am 14.7 14.0 13.2 91 0.8 WSW 9 11 5 6 1014.4 1014.3 0.2
 
Date/Time
EST
Temp
°C
App
Temp
°C
Dew
Point
Rel
Hum
%
Delta-T
°C
Wind Press
QNH
hPa
Press
MSL
hPa
Rain
since 9 am
mm
Dir
 
Spd
km/h
Gust
km/h
Spd
kts
Gust
kts
02/11:30pm 15.9 15.8 13.9 88 1.1 SW 7 13 4 7 1014.3 1014.2 0.2
02/11:00pm 16.5 16.7 14.7 89 1.0 SW 7 9 4 5 1014.1 1014.0 0.2
02/10:30pm 17.9 18.4 16.6 92 0.8 NW 9 15 5 8 1013.8 1013.7 0.2
02/10:00pm 16.8 17.1 16.0 95 0.5 NW 9 11 5 6 1013.8 1013.7 0.2
02/09:30pm 14.7 15.3 13.1 90 0.9 NW 2 9 1 5 1013.7 1013.6 0.2
02/09:00pm 15.6 16.1 14.1 91 0.8 NW 4 7 2 4 1013.7 1013.6 0.2
02/08:30pm 16.2 16.5 14.6 90 0.9 NW 6 9 3 5 1013.5 1013.4 0.2
02/08:00pm 17.9 18.4 15.5 86 1.4 WNW 7 9 4 5 1013.3 1013.2 0.2
02/07:30pm 18.4 18.8 15.3 82 1.8 NNW 7 11 4 6 1013.2 1013.1 0.2
02/07:00pm 18.9 19.1 14.6 76 2.5 NW 7 13 4 7 1012.7 1012.6 0.2
02/06:30pm 19.3 18.0 13.7 70 3.2 NW 13 19 7 10 1012.4 1012.3 0.2
02/06:00pm 20.1 18.5 12.8 63 4.1 NW 13 20 7 11 1012.3 1012.2 0.2
02/05:30pm 21.1 18.6 11.2 53 5.5 NNW 15 20 8 11 1012.1 1012.0 0.2
02/05:00pm 22.5 19.3 10.0 45 6.8 NNW 17 28 9 15 1012.1 1012.0 0.2
02/04:30pm 23.2 19.8 9.2 41 7.5 NNW 17 30 9 16 1011.9 1011.8 0.2
02/04:00pm 23.9 21.2 11.6 46 6.9 N 17 22 9 12 1011.8 1011.7 0.2
02/03:30pm 23.9 20.7 11.9 47 6.8 NNW 20 30 11 16 1012.0 1011.9 0.2
02/03:00pm 24.2 20.9 11.5 45 7.2 NNW 20 30 11 16 1012.0 1011.9 0.2
02/02:30pm 24.7 20.9 11.3 43 7.6 NNW 22 32 12 17 1012.3 1012.2 0.2
02/02:00pm 24.8 21.4 12.4 46 7.1 NNW 22 33 12 18 1012.8 1012.7 0.2
02/01:30pm 24.7 21.3 11.3 43 7.6 NNW 20 33 11 18 1013.4 1013.3 0.2
02/01:00pm 24.8 21.5 12.7 47 7.0 N 22 32 12 17 1013.8 1013.7 0.2
02/12:30pm 25.0 23.0 13.9 50 6.5 NNW 17 28 9 15 1014.3 1014.2 0.2
02/12:00pm 25.0 22.3 13.5 48 6.7 NNW 20 26 11 14 1014.9 1014.8 0.2
02/11:30am 24.5 21.7 13.1 49 6.6 NNW 20 26 11 14 1015.5 1015.4 0.2
02/11:00am 23.7 21.1 13.8 53 5.8 NW 20 28 11 15 1015.9 1015.8 0.2
02/10:30am 23.9 21.1 12.5 49 6.5 NNW 19 30 10 16 1016.5 1016.4 0.2
02/10:00am 23.0 20.5 13.5 55 5.5 NNW 19 28 10 15 1017.0 1016.9 0.0
02/09:30am 22.2 20.1 14.8 63 4.4 NNW 19 26 10 14 1017.5 1017.4 0.0
02/09:00am 21.2 19.1 14.8 67 3.8 NW 19 30 10 16 1017.6 1017.5 0.0
02/08:30am 20.0 21.2 17.4 85 1.6 NNW 7 13 4 7 1017.6 1017.5 0.0
02/08:00am 16.4 18.1 15.1 92 0.8 NE 0 0 0 0 1017.5 1017.4 0.0
02/07:39am 14.3 15.5 13.7 96 0.3 CALM 0 0 0 0 1017.4 1017.3 0.0
02/07:37am 14.0 15.1 13.4 96 0.3 CALM 0 0 0 0 1017.5 1017.4 0.0
02/07:30am 13.2 14.0 12.6 96 0.3 CALM 0 0 0 0 1017.5 1017.4 0.0
02/07:00am 9.7 9.5 9.1 96 0.3 CALM 0 0 0 0 1017.4 1017.3 0.0
02/06:30am 8.0 7.4 7.2 95 0.4 CALM 0 0 0 0 1017.3 1017.2 0.0
02/06:16am 7.8 7.1 7.1 95 0.3 CALM 0 0 0 0 1017.2 1017.1 0.0
02/06:00am 7.6 6.9 6.9 95 0.3 CALM 0 0 0 0 1017.2 1017.1 0.0
02/05:55am 7.6 6.9 6.9 95 0.3 CALM 0 0 0 0 1017.2 1017.1 0.0
02/05:30am 7.9 7.2 7.1 95 0.4 CALM 0 0 0 0 1016.9 1016.8 0.0
02/05:00am 8.1 7.5 7.3 95 0.4 CALM 0 0 0 0 1016.8 1016.7 0.0
02/04:48am 7.8 7.1 6.9 94 0.4 CALM 0 0 0 0 1016.8 1016.7 0.0
02/04:38am 7.7 6.9 6.6 93 0.5 CALM 0 0 0 0 1016.8 1016.7 0.0
02/04:30am 8.0 7.3 7.1 94 0.4 CALM 0 0 0 0 1016.9 1016.8 0.0
02/04:00am 8.3 7.7 7.4 94 0.4 CALM 0 0 0 0 1016.8 1016.7 0.0
02/03:30am 8.6 8.1 7.7 94 0.4 CALM 0 0 0 0 1016.7 1016.6 0.0
02/03:00am 8.9 8.4 8.0 94 0.4 CALM 0 0 0 0 1016.9 1016.8 0.0
02/02:30am 8.4 7.8 7.3 93 0.5 CALM 0 0 0 0 1017.1 1017.0 0.0
02/02:00am 9.3 8.9 8.4 94 0.4 CALM 0 0 0 0 1017.5 1017.4 0.0
02/01:30am 8.9 8.4 7.8 93 0.5 CALM 0 0 0 0 1017.3 1017.2 0.0
02/01:00am 9.4 9.0 8.3 93 0.5 CALM 0 0 0 0 1017.8 1017.7 0.0
02/12:30am 9.8 9.5 8.7 93 0.5 CALM 0 0 0 0 1017.9 1017.8 0.0
02/12:00am 10.0 9.7 8.8 92 0.6 CALM 0 0 0 0 1017.8 1017.7 0.0
 
Date/Time
EST
Temp
°C
App
Temp
°C
Dew
Point
Rel
Hum
%
Delta-T
°C
Wind Press
QNH
hPa
Press
MSL
hPa
Rain
since 9 am
mm
Dir
 
Spd
km/h
Gust
km/h
Spd
kts
Gust
kts
01/11:30pm 10.6 9.2 9.7 94 0.5 WSW 7 9 4 5 1018.0 1017.9 0.0
01/11:00pm 10.1 9.8 8.7 91 0.7 CALM 0 0 0 0 1018.1 1018.0 0.0
01/10:30pm 10.9 10.9 9.7 92 0.6 CALM 0 0 0 0 1018.4 1018.3 0.0
01/10:00pm 11.1 11.1 9.7 91 0.7 CALM 0 0 0 0 1018.5 1018.4 0.0
01/09:30pm 11.5 11.5 9.9 90 0.8 CALM 0 0 0 0 1018.5 1018.4 0.0
01/09:00pm 11.9 12.0 10.1 89 0.9 CALM 0 0 0 0 1018.6 1018.5 0.0
01/08:30pm 12.9 13.2 11.0 88 1.0 CALM 0 0 0 0 1018.4 1018.3 0.0
01/08:00pm 13.4 13.8 11.1 86 1.2 CALM 0 0 0 0 1018.3 1018.2 0.0
01/07:30pm 14.3 14.2 10.9 80 1.8 W 2 7 1 4 1018.3 1018.2 0.0
01/07:00pm 15.4 14.9 12.0 80 1.8 NE 6 7 3 4 1017.8 1017.7 0.0
01/06:30pm 16.5 16.1 12.3 76 2.3 NE 6 9 3 5 1017.5 1017.4 0.0
01/06:00pm 18.5 17.2 9.8 57 4.6 NE 7 9 4 5 1017.2 1017.1 0.0
01/05:30pm 20.7 18.5 9.3 48 6.1 NE 11 15 6 8 1017.0 1016.9 0.0
01/05:00pm 22.1 18.8 8.2 41 7.3 NE 15 22 8 12 1016.9 1016.8 0.0
01/04:30pm 23.1 20.1 7.6 37 8.1 NE 13 20 7 11 1016.6 1016.5 0.0
01/04:00pm 23.6 19.3 6.8 34 8.7 NE 19 24 10 13 1016.2 1016.1 0.0
01/03:30pm 24.0 20.3 6.3 32 9.1 N 15 22 8 12 1016.3 1016.2 0.0
01/03:00pm 24.1 20.3 5.9 31 9.3 NNE 15 24 8 13 1016.7 1016.6 0.0
01/02:30pm 24.7 21.0 6.4 31 9.5 NNE 15 28 8 15 1016.7 1016.6 0.0
01/02:00pm 24.9 21.9 7.5 33 9.2 N 13 19 7 10 1016.9 1016.8 0.0
01/01:30pm 24.8 21.1 6.5 31 9.5 NNE 15 22 8 12 1017.0 1016.9 0.0
01/01:00pm 25.2 22.9 9.1 36 8.7 NE 11 19 6 10 1017.4 1017.3 0.0
01/12:30pm 24.7 21.7 7.8 34 9.0 E 13 20 7 11 1018.1 1018.0 0.0
01/12:00pm 25.3 22.7 9.2 36 8.8 E 13 20 7 11 1018.9 1018.8 0.0
01/11:30am 24.4 21.4 9.2 38 8.2 NNE 15 24 8 13 1018.8 1018.7 0.0
01/11:00am 24.0 20.2 9.9 41 7.7 N 20 26 11 14 1018.6 1018.5 0.0
01/10:30am 23.5 22.8 11.9 48 6.6 E 7 13 4 7 1019.3 1019.2 0.0
01/10:00am 22.3 21.1 11.7 51 5.9 ENE 9 15 5 8 1019.8 1019.7 0.0
01/09:30am 21.5 21.9 13.7 61 4.5 W 4 9 2 5 1019.9 1019.9 0.0
01/09:00am 20.1 21.1 14.2 69 3.4 N 2 9 1 5 1020.2 1020.2 0.0
01/08:30am 17.0 18.5 14.6 86 1.4 CALM 0 0 0 0 1020.1 1020.1 0.0
01/08:00am 13.5 14.3 12.4 93 0.6 CALM 0 0 0 0 1019.8 1019.8 0.0
01/07:37am 11.4 11.7 10.8 96 0.3 CALM 0 0 0 0 1019.6 1019.6 0.0
01/07:31am 10.9 11.1 10.4 97 0.3 CALM 0 0 0 0 1019.6 1019.6 0.0
01/07:30am 11.0 11.2 10.5 97 0.3 CALM 0 0 0 0 1019.6 1019.6 0.0
01/07:00am 7.8 7.2 7.4 97 0.2 CALM 0 0 0 0 1019.1 1019.1 0.0
01/06:30am 7.4 6.7 6.8 96 0.3 CALM 0 0 0 0 1018.9 1018.9 0.0
01/06:00am 7.0 5.4 6.4 96 0.3 W 4 7 2 4 1018.5 1018.5 0.0
01/05:30am 6.8 5.9 6.2 96 0.3 CALM 0 0 0 0 1018.2 1018.2 0.0
01/05:00am 6.3 5.3 5.6 95 0.3 CALM 0 0 0 0 1017.9 1017.9 0.0
01/04:54am 6.3 5.3 5.6 95 0.3 CALM 0 0 0 0 1017.9 1017.9 0.0
01/04:30am 6.3 5.3 5.4 94 0.4 CALM 0 0 0 0 1018.0 1018.0 0.0
01/04:00am 6.9 6.0 6.0 94 0.4 CALM 0 0 0 0 1018.2 1018.2 0.0
01/03:30am 6.7 5.7 5.8 94 0.4 CALM 0 0 0 0 1018.0 1018.0 0.0
01/03:00am 7.0 6.1 6.1 94 0.4 CALM 0 0 0 0 1018.0 1018.0 0.0
01/02:30am 7.4 6.6 6.5 94 0.4 CALM 0 0 0 0 1018.1 1018.1 0.0
01/02:00am 7.4 6.6 6.3 93 0.5 CALM 0 0 0 0 1018.2 1018.2 0.0
01/01:30am 7.8 7.0 6.7 93 0.5 CALM 0 0 0 0 1018.3 1018.3 0.0
01/01:00am 8.1 7.4 7.0 93 0.5 CALM 0 0 0 0 1018.2 1018.2 0.0
01/12:30am 8.5 7.9 7.4 93 0.5 CALM 0 0 0 0 1018.4 1018.4 0.0
01/12:00am 8.8 8.3 7.7 93 0.5 CALM 0 0 0 0 1018.7 1018.7 0.0
 
Date/Time
EST
Temp
°C
App
Temp
°C
Dew
Point
Rel
Hum
%
Delta-T
°C
Wind Press
QNH
hPa
Press
MSL
hPa
Rain
since 9 am
mm
Dir
 
Spd
km/h
Gust
km/h
Spd
kts
Gust
kts
31/11:30pm 9.2 8.8 8.1 93 0.5 CALM 0 0 0 0 1018.8 1018.8 0.0
31/11:00pm 9.3 8.9 8.2 93 0.5 CALM 0 0 0 0 1018.8 1018.8 0.0
31/10:30pm 9.1 8.6 7.9 92 0.6 CALM 0 0 0 0 1019.0 1019.0 0.0
31/10:00pm 9.8 9.5 8.6 92 0.6 CALM 0 0 0 0 1018.9 1018.9 0.0
31/09:30pm 10.3 10.1 8.9 91 0.7 CALM 0 6 0 3 1018.6 1018.6 0.0
31/09:00pm 10.7 10.6 9.3 91 0.7 CALM 0 0 0 0 1018.5 1018.5 0.0
31/08:30pm 11.5 11.5 9.9 90 0.8 CALM 0 0 0 0 1018.2 1018.2 0.0
31/08:00pm 11.7 11.7 9.8 88 1.0 CALM 0 0 0 0 1018.0 1018.0 0.0
31/07:30pm 12.3 12.4 10.2 87 1.1 CALM 0 0 0 0 1017.7 1017.6 0.0
31/07:00pm 13.3 13.4 10.1 81 1.7 CALM 0 0 0 0 1017.2 1017.1 0.0
31/06:30pm 15.0 15.2 10.4 74 2.4 CALM 0 4 0 2 1016.8 1016.7 0.0
31/06:00pm 17.7 16.5 9.6 59 4.3 N 6 9 3 5 1016.3 1016.2 0.0
31/05:30pm 19.8 18.4 9.7 52 5.4 NNE 7 9 4 5 1016.2 1016.1 0.0
31/05:00pm 21.4 18.4 7.6 41 7.1 NNE 13 20 7 11 1015.9 1015.8 0.0
31/04:30pm 22.7 18.6 4.2 30 9.1 ENE 15 22 8 12 1015.6 1015.5 0.0
31/04:00pm 23.1 19.4 4.6 30 9.1 NE 13 19 7 10 1015.5 1015.4 0.0
31/03:30pm 23.1 19.3 6.0 33 8.7 NNE 15 20 8 11 1015.4 1015.3 0.0
31/03:00pm 23.9 20.7 8.3 37 8.3 NNE 15 24 8 13 1015.3 1015.2 0.0
31/02:30pm 23.8 21.0 10.1 42 7.5 ENE 15 22 8 12 1015.5 1015.4 0.0
31/02:00pm 23.7 20.6 10.4 43 7.3 NE 17 24 9 13 1015.7 1015.6 0.0
31/01:30pm 23.4 20.9 12.4 50 6.3 NE 17 24 9 13 1015.9 1015.8 0.0
31/01:00pm 24.9 22.7 10.7 40 7.9 E 13 22 7 12 1016.3 1016.2 0.0
31/12:30pm 24.2 21.9 7.4 34 8.8 WNW 9 15 5 8 1017.0 1016.9 0.0
31/12:00pm 24.1 21.9 7.7 35 8.6 ENE 9 13 5 7 1017.4 1017.3 0.0
31/11:30am 23.9 22.8 10.6 43 7.4 WNW 7 11 4 6 1017.9 1017.9 0.0
31/11:00am 22.9 22.1 11.0 47 6.6 SSW 6 13 3 7 1018.3 1018.3 0.0
31/10:30am 22.2 21.7 12.2 53 5.7 SW 6 9 3 5 1018.7 1018.7 0.0
31/10:00am 21.3 21.0 12.7 58 4.9 W 6 13 3 7 1019.2 1019.2 0.0
31/09:30am 20.0 20.3 15.0 73 2.9 WSW 7 11 4 6 1019.4 1019.4 0.0
31/09:00am 18.4 19.5 14.5 78 2.2 SW 2 11 1 6 1019.6 1019.6 0.2
31/08:30am 16.5 17.3 13.6 83 1.6 E 2 7 1 4 1019.7 1019.7 0.2
31/08:00am 14.4 15.3 12.8 90 0.9 CALM 0 0 0 0 1019.5 1019.5 0.2
31/07:30am 11.8 12.1 10.9 94 0.5 CALM 0 0 0 0 1019.1 1019.1 0.2
31/07:00am 9.3 9.0 8.5 95 0.4 CALM 0 0 0 0 1018.9 1018.9 0.2
31/06:49am 9.0 8.6 8.4 96 0.3 CALM 0 0 0 0 1018.8 1018.8 0.2
31/06:41am 8.6 8.1 8.0 96 0.3 CALM 0 0 0 0 1018.7 1018.7 0.2
31/06:30am 8.2 7.6 7.6 96 0.3 CALM 0 0 0 0 1018.6 1018.6 0.2
31/06:00am 8.2 7.6 7.6 96 0.3 CALM 0 0 0 0 1018.4 1018.4 0.2

Other Formats:

Comma delimited format used in spreadsheet applications
http://www.bom.gov.au/fwo/IDQ60801/IDQ60801.94370.axf

JavaScript Object Notation format (JSON) in row-major order
http://www.bom.gov.au/fwo/IDQ60801/IDQ60801.94370.json